sensor_id;sensor_type;location;lat;lon;timestamp;P1;durP1;ratioP1;P2;durP2;ratioP2
62808;SDS011;48848;39.002;-94.584;2022-07-09T00:02:15;0.60;;;0.60;;
62808;SDS011;48848;39.002;-94.584;2022-07-09T00:04:41;0.88;;;0.80;;
62808;SDS011;48848;39.002;-94.584;2022-07-09T00:07:07;0.85;;;0.70;;
62808;SDS011;48848;39.002;-94.584;2022-07-09T00:09:33;0.80;;;0.65;;
62808;SDS011;48848;39.002;-94.584;2022-07-09T00:11:59;1.10;;;0.80;;
62808;SDS011;48848;39.002;-94.584;2022-07-09T00:14:26;0.98;;;0.68;;
62808;SDS011;48848;39.002;-94.584;2022-07-09T00:16:52;0.95;;;0.80;;
62808;SDS011;48848;39.002;-94.584;2022-07-09T00:19:18;0.85;;;0.70;;
62808;SDS011;48848;39.002;-94.584;2022-07-09T00:21:44;0.93;;;0.80;;
62808;SDS011;48848;39.002;-94.584;2022-07-09T00:24:10;0.93;;;0.70;;
62808;SDS011;48848;39.002;-94.584;2022-07-09T00:26:37;0.80;;;0.70;;
62808;SDS011;48848;39.002;-94.584;2022-07-09T00:29:03;0.65;;;0.63;;
62808;SDS011;48848;39.002;-94.584;2022-07-09T00:31:29;0.80;;;0.80;;
62808;SDS011;48848;39.002;-94.584;2022-07-09T00:33:55;0.68;;;0.60;;
62808;SDS011;48848;39.002;-94.584;2022-07-09T00:36:21;1.23;;;0.80;;
62808;SDS011;48848;39.002;-94.584;2022-07-09T00:38:48;1.17;;;0.80;;
62808;SDS011;48848;39.002;-94.584;2022-07-09T00:41:14;0.75;;;0.68;;
62808;SDS011;48848;39.002;-94.584;2022-07-09T00:43:45;0.63;;;0.60;;
62808;SDS011;48848;39.002;-94.584;2022-07-09T00:46:13;1.00;;;0.77;;
62808;SDS011;48848;39.002;-94.584;2022-07-09T00:48:40;0.70;;;0.63;;
62808;SDS011;48848;39.002;-94.584;2022-07-09T00:51:07;0.68;;;0.68;;
62808;SDS011;48848;39.002;-94.584;2022-07-09T00:53:34;0.70;;;0.70;;
62808;SDS011;48848;39.002;-94.584;2022-07-09T00:56:01;1.80;;;0.90;;
62808;SDS011;48848;39.002;-94.584;2022-07-09T00:58:28;0.82;;;0.80;;
62808;SDS011;48848;39.002;-94.584;2022-07-09T01:00:54;0.82;;;0.77;;
62808;SDS011;48848;39.002;-94.584;2022-07-09T01:03:21;0.80;;;0.60;;
62808;SDS011;48848;39.002;-94.584;2022-07-09T01:05:48;0.88;;;0.65;;
62808;SDS011;48848;39.002;-94.584;2022-07-09T01:08:14;0.80;;;0.80;;
62808;SDS011;48848;39.002;-94.584;2022-07-09T01:10:41;0.73;;;0.70;;
62808;SDS011;48848;39.002;-94.584;2022-07-09T01:13:07;0.88;;;0.70;;
62808;SDS011;48848;39.002;-94.584;2022-07-09T01:15:33;0.60;;;0.60;;
62808;SDS011;48848;39.002;-94.584;2022-07-09T01:18:00;0.90;;;0.80;;
62808;SDS011;48848;39.002;-94.584;2022-07-09T01:20:29;0.70;;;0.70;;
62808;SDS011;48848;39.002;-94.584;2022-07-09T01:22:56;1.00;;;0.80;;
62808;SDS011;48848;39.002;-94.584;2022-07-09T01:25:39;0.88;;;0.75;;
62808;SDS011;48848;39.002;-94.584;2022-07-09T01:28:09;1.15;;;0.80;;
62808;SDS011;48848;39.002;-94.584;2022-07-09T01:30:36;0.95;;;0.82;;
62808;SDS011;48848;39.002;-94.584;2022-07-09T01:33:05;1.88;;;0.90;;
62808;SDS011;48848;39.002;-94.584;2022-07-09T01:35:32;0.90;;;0.80;;
62808;SDS011;48848;39.002;-94.584;2022-07-09T01:37:58;1.25;;;0.77;;
62808;SDS011;48848;39.002;-94.584;2022-07-09T01:40:25;0.82;;;0.80;;
62808;SDS011;48848;39.002;-94.584;2022-07-09T01:42:51;1.23;;;0.70;;
62808;SDS011;48848;39.002;-94.584;2022-07-09T01:45:18;1.25;;;0.80;;
62808;SDS011;48848;39.002;-94.584;2022-07-09T01:47:44;1.00;;;0.90;;
62808;SDS011;48848;39.002;-94.584;2022-07-09T01:50:10;0.95;;;0.85;;
62808;SDS011;48848;39.002;-94.584;2022-07-09T01:52:36;1.63;;;1.00;;
62808;SDS011;48848;39.002;-94.584;2022-07-09T01:55:03;1.33;;;0.90;;
62808;SDS011;48848;39.002;-94.584;2022-07-09T01:57:30;1.30;;;0.90;;
62808;SDS011;48848;39.002;-94.584;2022-07-09T01:59:56;1.52;;;1.00;;
62808;SDS011;48848;39.002;-94.584;2022-07-09T02:02:22;1.50;;;1.00;;
62808;SDS011;48848;39.002;-94.584;2022-07-09T02:04:48;1.63;;;1.00;;
62808;SDS011;48848;39.002;-94.584;2022-07-09T02:07:14;0.93;;;0.75;;
62808;SDS011;48848;39.002;-94.584;2022-07-09T02:09:41;1.50;;;1.02;;
62808;SDS011;48848;39.002;-94.584;2022-07-09T02:12:07;1.60;;;1.10;;
62808;SDS011;48848;39.002;-94.584;2022-07-09T02:14:34;1.70;;;1.10;;
62808;SDS011;48848;39.002;-94.584;2022-07-09T02:17:00;1.38;;;1.00;;
62808;SDS011;48848;39.002;-94.584;2022-07-09T02:19:26;1.23;;;0.90;;
62808;SDS011;48848;39.002;-94.584;2022-07-09T02:21:52;1.15;;;0.85;;
62808;SDS011;48848;39.002;-94.584;2022-07-09T02:24:18;1.55;;;1.00;;
62808;SDS011;48848;39.002;-94.584;2022-07-09T02:26:45;1.85;;;1.15;;
62808;SDS011;48848;39.002;-94.584;2022-07-09T02:29:11;1.50;;;1.00;;
62808;SDS011;48848;39.002;-94.584;2022-07-09T02:31:37;3.22;;;1.00;;
62808;SDS011;48848;39.002;-94.584;2022-07-09T02:34:03;1.38;;;0.90;;
62808;SDS011;48848;39.002;-94.584;2022-07-09T02:36:30;1.70;;;1.10;;
62808;SDS011;48848;39.002;-94.584;2022-07-09T02:38:56;1.63;;;1.10;;
62808;SDS011;48848;39.002;-94.584;2022-07-09T02:41:22;1.65;;;1.10;;
62808;SDS011;48848;39.002;-94.584;2022-07-09T02:43:48;1.67;;;1.10;;
62808;SDS011;48848;39.002;-94.584;2022-07-09T02:46:14;1.55;;;1.10;;
62808;SDS011;48848;39.002;-94.584;2022-07-09T02:48:40;1.58;;;1.00;;
62808;SDS011;48848;39.002;-94.584;2022-07-09T02:51:07;1.83;;;1.17;;
62808;SDS011;48848;39.002;-94.584;2022-07-09T02:53:33;1.67;;;1.10;;
62808;SDS011;48848;39.002;-94.584;2022-07-09T02:55:59;4.80;;;1.30;;
62808;SDS011;48848;39.002;-94.584;2022-07-09T02:58:25;2.28;;;1.23;;
62808;SDS011;48848;39.002;-94.584;2022-07-09T03:00:51;1.88;;;1.10;;
62808;SDS011;48848;39.002;-94.584;2022-07-09T03:03:18;2.35;;;1.20;;
62808;SDS011;48848;39.002;-94.584;2022-07-09T03:05:44;3.53;;;1.17;;
62808;SDS011;48848;39.002;-94.584;2022-07-09T03:08:10;2.63;;;1.20;;
62808;SDS011;48848;39.002;-94.584;2022-07-09T03:10:36;2.60;;;1.20;;
62808;SDS011;48848;39.002;-94.584;2022-07-09T03:13:02;5.18;;;1.40;;
62808;SDS011;48848;39.002;-94.584;2022-07-09T03:15:29;5.50;;;1.50;;
62808;SDS011;48848;39.002;-94.584;2022-07-09T03:17:55;3.55;;;1.42;;
62808;SDS011;48848;39.002;-94.584;2022-07-09T03:20:21;6.95;;;1.40;;
62808;SDS011;48848;39.002;-94.584;2022-07-09T03:22:47;2.78;;;1.30;;
62808;SDS011;48848;39.002;-94.584;2022-07-09T03:25:13;3.83;;;1.35;;
62808;SDS011;48848;39.002;-94.584;2022-07-09T03:27:40;5.70;;;1.50;;
62808;SDS011;48848;39.002;-94.584;2022-07-09T03:30:06;2.97;;;1.50;;
62808;SDS011;48848;39.002;-94.584;2022-07-09T03:32:32;4.53;;;1.50;;
62808;SDS011;48848;39.002;-94.584;2022-07-09T03:34:58;7.85;;;1.60;;
62808;SDS011;48848;39.002;-94.584;2022-07-09T03:37:25;4.30;;;1.50;;
62808;SDS011;48848;39.002;-94.584;2022-07-09T03:39:51;4.13;;;1.70;;
62808;SDS011;48848;39.002;-94.584;2022-07-09T03:42:17;5.63;;;1.60;;
62808;SDS011;48848;39.002;-94.584;2022-07-09T03:44:43;5.63;;;1.40;;
62808;SDS011;48848;39.002;-94.584;2022-07-09T03:47:09;2.55;;;1.38;;
62808;SDS011;48848;39.002;-94.584;2022-07-09T03:49:35;3.53;;;1.35;;
62808;SDS011;48848;39.002;-94.584;2022-07-09T03:52:02;2.42;;;1.30;;
62808;SDS011;48848;39.002;-94.584;2022-07-09T03:54:28;4.45;;;1.20;;
62808;SDS011;48848;39.002;-94.584;2022-07-09T03:56:54;3.17;;;1.38;;
62808;SDS011;48848;39.002;-94.584;2022-07-09T03:59:20;2.92;;;1.42;;
62808;SDS011;48848;39.002;-94.584;2022-07-09T04:01:46;3.72;;;1.40;;
62808;SDS011;48848;39.002;-94.584;2022-07-09T04:04:13;2.30;;;1.20;;
62808;SDS011;48848;39.002;-94.584;2022-07-09T04:06:39;2.50;;;1.27;;
62808;SDS011;48848;39.002;-94.584;2022-07-09T04:09:05;2.08;;;1.35;;
62808;SDS011;48848;39.002;-94.584;2022-07-09T04:11:32;5.13;;;1.30;;
62808;SDS011;48848;39.002;-94.584;2022-07-09T04:13:59;1.90;;;1.20;;
62808;SDS011;48848;39.002;-94.584;2022-07-09T04:16:26;3.58;;;1.20;;
62808;SDS011;48848;39.002;-94.584;2022-07-09T04:18:53;1.65;;;1.10;;
62808;SDS011;48848;39.002;-94.584;2022-07-09T04:21:19;2.00;;;1.13;;
62808;SDS011;48848;39.002;-94.584;2022-07-09T04:23:49;2.03;;;1.20;;
62808;SDS011;48848;39.002;-94.584;2022-07-09T04:26:16;1.13;;;0.90;;
62808;SDS011;48848;39.002;-94.584;2022-07-09T04:28:44;2.15;;;1.20;;
62808;SDS011;48848;39.002;-94.584;2022-07-09T04:31:10;1.67;;;1.10;;
62808;SDS011;48848;39.002;-94.584;2022-07-09T04:33:37;1.67;;;1.15;;
62808;SDS011;48848;39.002;-94.584;2022-07-09T04:36:03;1.50;;;1.00;;
62808;SDS011;48848;39.002;-94.584;2022-07-09T04:38:29;1.58;;;1.05;;
62808;SDS011;48848;39.002;-94.584;2022-07-09T04:40:56;1.88;;;1.20;;
62808;SDS011;48848;39.002;-94.584;2022-07-09T04:43:23;1.65;;;1.10;;
62808;SDS011;48848;39.002;-94.584;2022-07-09T04:45:50;1.45;;;1.00;;
62808;SDS011;48848;39.002;-94.584;2022-07-09T04:48:16;1.30;;;1.00;;
62808;SDS011;48848;39.002;-94.584;2022-07-09T04:50:42;1.58;;;1.00;;
62808;SDS011;48848;39.002;-94.584;2022-07-09T04:53:08;1.48;;;1.00;;
62808;SDS011;48848;39.002;-94.584;2022-07-09T04:55:34;1.52;;;1.00;;
62808;SDS011;48848;39.002;-94.584;2022-07-09T04:58:00;1.70;;;1.00;;
62808;SDS011;48848;39.002;-94.584;2022-07-09T05:00:27;1.50;;;0.93;;
62808;SDS011;48848;39.002;-94.584;2022-07-09T05:02:53;2.08;;;1.10;;
62808;SDS011;48848;39.002;-94.584;2022-07-09T05:05:19;1.38;;;1.00;;
62808;SDS011;48848;39.002;-94.584;2022-07-09T05:07:48;1.15;;;0.90;;
62808;SDS011;48848;39.002;-94.584;2022-07-09T05:10:14;1.52;;;0.90;;
62808;SDS011;48848;39.002;-94.584;2022-07-09T05:12:41;1.73;;;1.10;;
62808;SDS011;48848;39.002;-94.584;2022-07-09T05:15:08;1.58;;;1.10;;
62808;SDS011;48848;39.002;-94.584;2022-07-09T05:17:35;1.48;;;0.80;;
62808;SDS011;48848;39.002;-94.584;2022-07-09T05:20:03;1.30;;;0.90;;
62808;SDS011;48848;39.002;-94.584;2022-07-09T05:22:32;1.50;;;1.00;;
62808;SDS011;48848;39.002;-94.584;2022-07-09T05:25:01;1.00;;;0.80;;
62808;SDS011;48848;39.002;-94.584;2022-07-09T05:27:27;1.33;;;0.98;;
62808;SDS011;48848;39.002;-94.584;2022-07-09T05:29:53;1.30;;;0.90;;
62808;SDS011;48848;39.002;-94.584;2022-07-09T05:32:20;1.52;;;1.00;;
62808;SDS011;48848;39.002;-94.584;2022-07-09T05:34:46;0.90;;;0.80;;
62808;SDS011;48848;39.002;-94.584;2022-07-09T05:37:14;1.38;;;0.98;;
62808;SDS011;48848;39.002;-94.584;2022-07-09T05:39:41;2.83;;;0.80;;
62808;SDS011;48848;39.002;-94.584;2022-07-09T05:42:07;3.60;;;1.00;;
62808;SDS011;48848;39.002;-94.584;2022-07-09T05:44:33;1.00;;;0.90;;
62808;SDS011;48848;39.002;-94.584;2022-07-09T05:46:59;1.00;;;0.90;;
62808;SDS011;48848;39.002;-94.584;2022-07-09T05:49:26;1.15;;;0.80;;
62808;SDS011;48848;39.002;-94.584;2022-07-09T05:51:53;1.25;;;0.85;;
62808;SDS011;48848;39.002;-94.584;2022-07-09T05:54:19;1.35;;;0.98;;
62808;SDS011;48848;39.002;-94.584;2022-07-09T05:56:45;1.00;;;0.90;;
62808;SDS011;48848;39.002;-94.584;2022-07-09T05:59:11;1.27;;;1.00;;
62808;SDS011;48848;39.002;-94.584;2022-07-09T06:01:38;1.42;;;1.00;;
62808;SDS011;48848;39.002;-94.584;2022-07-09T06:04:05;2.17;;;0.90;;
62808;SDS011;48848;39.002;-94.584;2022-07-09T06:06:32;1.15;;;0.90;;
62808;SDS011;48848;39.002;-94.584;2022-07-09T06:08:59;1.77;;;1.00;;
62808;SDS011;48848;39.002;-94.584;2022-07-09T06:11:25;1.25;;;0.90;;
62808;SDS011;48848;39.002;-94.584;2022-07-09T06:13:52;1.90;;;1.10;;
62808;SDS011;48848;39.002;-94.584;2022-07-09T06:16:18;2.70;;;1.00;;
62808;SDS011;48848;39.002;-94.584;2022-07-09T06:18:45;2.13;;;1.10;;
62808;SDS011;48848;39.002;-94.584;2022-07-09T06:21:11;1.25;;;0.90;;
62808;SDS011;48848;39.002;-94.584;2022-07-09T06:23:37;1.60;;;1.00;;
62808;SDS011;48848;39.002;-94.584;2022-07-09T06:26:03;1.13;;;0.95;;
62808;SDS011;48848;39.002;-94.584;2022-07-09T06:28:30;1.75;;;1.10;;
62808;SDS011;48848;39.002;-94.584;2022-07-09T06:30:56;1.88;;;1.10;;
62808;SDS011;48848;39.002;-94.584;2022-07-09T06:33:22;2.67;;;1.00;;
62808;SDS011;48848;39.002;-94.584;2022-07-09T06:35:48;2.53;;;1.20;;
62808;SDS011;48848;39.002;-94.584;2022-07-09T06:38:14;1.60;;;1.08;;
62808;SDS011;48848;39.002;-94.584;2022-07-09T06:40:41;1.67;;;1.10;;
62808;SDS011;48848;39.002;-94.584;2022-07-09T06:43:07;2.03;;;1.10;;
62808;SDS011;48848;39.002;-94.584;2022-07-09T06:45:35;1.30;;;0.90;;
62808;SDS011;48848;39.002;-94.584;2022-07-09T06:48:01;1.15;;;0.95;;
62808;SDS011;48848;39.002;-94.584;2022-07-09T06:50:28;1.40;;;0.90;;
62808;SDS011;48848;39.002;-94.584;2022-07-09T06:52:54;1.17;;;0.88;;
62808;SDS011;48848;39.002;-94.584;2022-07-09T06:55:20;0.90;;;0.80;;
62808;SDS011;48848;39.002;-94.584;2022-07-09T06:57:47;1.63;;;0.90;;
62808;SDS011;48848;39.002;-94.584;2022-07-09T07:00:13;1.42;;;0.80;;
62808;SDS011;48848;39.002;-94.584;2022-07-09T07:02:39;5.55;;;1.23;;
62808;SDS011;48848;39.002;-94.584;2022-07-09T07:05:06;1.33;;;0.90;;
62808;SDS011;48848;39.002;-94.584;2022-07-09T07:07:33;1.17;;;0.90;;
62808;SDS011;48848;39.002;-94.584;2022-07-09T07:09:59;1.38;;;0.90;;
62808;SDS011;48848;39.002;-94.584;2022-07-09T07:12:25;1.10;;;0.82;;
62808;SDS011;48848;39.002;-94.584;2022-07-09T07:14:51;1.15;;;0.90;;
62808;SDS011;48848;39.002;-94.584;2022-07-09T07:17:17;1.50;;;1.00;;
62808;SDS011;48848;39.002;-94.584;2022-07-09T07:19:44;1.30;;;0.90;;
62808;SDS011;48848;39.002;-94.584;2022-07-09T07:22:10;1.25;;;0.93;;
62808;SDS011;48848;39.002;-94.584;2022-07-09T07:24:36;1.00;;;0.90;;
62808;SDS011;48848;39.002;-94.584;2022-07-09T07:27:02;0.93;;;0.80;;
62808;SDS011;48848;39.002;-94.584;2022-07-09T07:29:29;1.40;;;1.02;;
62808;SDS011;48848;39.002;-94.584;2022-07-09T07:31:55;1.65;;;1.00;;
62808;SDS011;48848;39.002;-94.584;2022-07-09T07:34:22;0.90;;;0.80;;
62808;SDS011;48848;39.002;-94.584;2022-07-09T07:36:49;1.10;;;0.82;;
62808;SDS011;48848;39.002;-94.584;2022-07-09T07:39:16;1.52;;;1.00;;
62808;SDS011;48848;39.002;-94.584;2022-07-09T07:41:43;1.42;;;0.90;;
62808;SDS011;48848;39.002;-94.584;2022-07-09T07:44:09;1.30;;;0.98;;
62808;SDS011;48848;39.002;-94.584;2022-07-09T07:46:35;1.00;;;0.80;;
62808;SDS011;48848;39.002;-94.584;2022-07-09T07:49:02;1.05;;;0.95;;
62808;SDS011;48848;39.002;-94.584;2022-07-09T07:51:28;1.00;;;0.90;;
62808;SDS011;48848;39.002;-94.584;2022-07-09T07:53:54;1.15;;;0.90;;
62808;SDS011;48848;39.002;-94.584;2022-07-09T07:56:20;1.83;;;1.10;;
62808;SDS011;48848;39.002;-94.584;2022-07-09T07:58:47;1.58;;;0.93;;
62808;SDS011;48848;39.002;-94.584;2022-07-09T08:01:13;1.30;;;0.95;;
62808;SDS011;48848;39.002;-94.584;2022-07-09T08:03:39;1.60;;;1.00;;
62808;SDS011;48848;39.002;-94.584;2022-07-09T08:06:05;1.05;;;0.90;;
62808;SDS011;48848;39.002;-94.584;2022-07-09T08:08:33;1.20;;;1.00;;
62808;SDS011;48848;39.002;-94.584;2022-07-09T08:10:59;1.40;;;0.90;;
62808;SDS011;48848;39.002;-94.584;2022-07-09T08:13:27;1.55;;;0.98;;
62808;SDS011;48848;39.002;-94.584;2022-07-09T08:15:54;1.10;;;0.90;;
62808;SDS011;48848;39.002;-94.584;2022-07-09T08:18:20;0.80;;;0.80;;
62808;SDS011;48848;39.002;-94.584;2022-07-09T08:20:46;0.80;;;0.80;;
62808;SDS011;48848;39.002;-94.584;2022-07-09T08:23:14;1.30;;;0.90;;
62808;SDS011;48848;39.002;-94.584;2022-07-09T08:25:40;1.20;;;0.90;;
62808;SDS011;48848;39.002;-94.584;2022-07-09T08:28:06;1.08;;;0.90;;
62808;SDS011;48848;39.002;-94.584;2022-07-09T08:30:33;1.20;;;0.90;;
62808;SDS011;48848;39.002;-94.584;2022-07-09T08:32:59;1.23;;;0.90;;
62808;SDS011;48848;39.002;-94.584;2022-07-09T08:35:25;1.35;;;0.90;;
62808;SDS011;48848;39.002;-94.584;2022-07-09T08:37:52;0.82;;;0.80;;
62808;SDS011;48848;39.002;-94.584;2022-07-09T08:40:18;2.15;;;0.90;;
62808;SDS011;48848;39.002;-94.584;2022-07-09T08:42:45;1.23;;;0.90;;
62808;SDS011;48848;39.002;-94.584;2022-07-09T08:45:11;0.80;;;0.80;;
62808;SDS011;48848;39.002;-94.584;2022-07-09T08:47:41;0.95;;;0.85;;
62808;SDS011;48848;39.002;-94.584;2022-07-09T08:50:08;0.70;;;0.68;;
62808;SDS011;48848;39.002;-94.584;2022-07-09T08:52:35;1.42;;;0.90;;
62808;SDS011;48848;39.002;-94.584;2022-07-09T08:55:03;0.80;;;0.80;;
62808;SDS011;48848;39.002;-94.584;2022-07-09T08:57:29;1.02;;;0.90;;
62808;SDS011;48848;39.002;-94.584;2022-07-09T08:59:56;1.00;;;0.80;;
62808;SDS011;48848;39.002;-94.584;2022-07-09T09:02:22;0.82;;;0.80;;
62808;SDS011;48848;39.002;-94.584;2022-07-09T09:04:49;0.98;;;0.88;;
62808;SDS011;48848;39.002;-94.584;2022-07-09T09:07:15;1.00;;;0.90;;
62808;SDS011;48848;39.002;-94.584;2022-07-09T09:09:43;3.47;;;1.00;;
62808;SDS011;48848;39.002;-94.584;2022-07-09T09:12:10;1.52;;;0.90;;
62808;SDS011;48848;39.002;-94.584;2022-07-09T09:14:38;2.72;;;0.90;;
62808;SDS011;48848;39.002;-94.584;2022-07-09T09:17:05;1.20;;;0.90;;
62808;SDS011;48848;39.002;-94.584;2022-07-09T09:22:03;2.65;;;1.00;;
62808;SDS011;48848;39.002;-94.584;2022-07-09T09:24:30;1.35;;;1.00;;
62808;SDS011;48848;39.002;-94.584;2022-07-09T09:26:59;1.85;;;1.10;;
62808;SDS011;48848;39.002;-94.584;2022-07-09T09:29:28;1.52;;;1.02;;
62808;SDS011;48848;39.002;-94.584;2022-07-09T09:31:55;1.50;;;1.08;;
62808;SDS011;48848;39.002;-94.584;2022-07-09T09:34:34;1.80;;;1.10;;
62808;SDS011;48848;39.002;-94.584;2022-07-09T09:37:01;3.30;;;1.15;;
62808;SDS011;48848;39.002;-94.584;2022-07-09T09:39:28;5.78;;;1.30;;
62808;SDS011;48848;39.002;-94.584;2022-07-09T09:44:22;1.33;;;1.00;;
62808;SDS011;48848;39.002;-94.584;2022-07-09T09:46:51;1.60;;;1.20;;
62808;SDS011;48848;39.002;-94.584;2022-07-09T09:49:18;2.17;;;1.20;;
62808;SDS011;48848;39.002;-94.584;2022-07-09T09:51:53;3.10;;;1.30;;
62808;SDS011;48848;39.002;-94.584;2022-07-09T09:54:21;1.90;;;1.27;;
62808;SDS011;48848;39.002;-94.584;2022-07-09T09:56:51;3.10;;;1.10;;
62808;SDS011;48848;39.002;-94.584;2022-07-09T09:59:19;2.38;;;1.20;;
62808;SDS011;48848;39.002;-94.584;2022-07-09T10:01:45;3.75;;;1.45;;
62808;SDS011;48848;39.002;-94.584;2022-07-09T10:04:12;1.88;;;1.20;;
62808;SDS011;48848;39.002;-94.584;2022-07-09T10:09:12;2.22;;;1.35;;
62808;SDS011;48848;39.002;-94.584;2022-07-09T10:14:06;2.40;;;1.40;;
62808;SDS011;48848;39.002;-94.584;2022-07-09T10:16:33;6.32;;;1.20;;
62808;SDS011;48848;39.002;-94.584;2022-07-09T10:19:04;2.85;;;1.40;;
62808;SDS011;48848;39.002;-94.584;2022-07-09T10:21:39;2.17;;;1.33;;
62808;SDS011;48848;39.002;-94.584;2022-07-09T10:24:07;3.97;;;1.20;;
62808;SDS011;48848;39.002;-94.584;2022-07-09T10:26:37;2.00;;;1.23;;
62808;SDS011;48848;39.002;-94.584;2022-07-09T10:32:26;1.77;;;1.20;;
62808;SDS011;48848;39.002;-94.584;2022-07-09T10:34:57;1.60;;;1.10;;
62808;SDS011;48848;39.002;-94.584;2022-07-09T10:37:43;1.92;;;1.20;;
62808;SDS011;48848;39.002;-94.584;2022-07-09T10:40:10;1.50;;;1.10;;
62808;SDS011;48848;39.002;-94.584;2022-07-09T10:45:15;1.27;;;0.98;;
62808;SDS011;48848;39.002;-94.584;2022-07-09T10:47:53;1.35;;;1.00;;
62808;SDS011;48848;39.002;-94.584;2022-07-09T10:50:21;1.30;;;0.90;;
62808;SDS011;48848;39.002;-94.584;2022-07-09T10:52:49;1.40;;;0.90;;
62808;SDS011;48848;39.002;-94.584;2022-07-09T10:55:23;5.82;;;1.20;;
62808;SDS011;48848;39.002;-94.584;2022-07-09T10:57:50;2.85;;;1.23;;
62808;SDS011;48848;39.002;-94.584;2022-07-09T11:00:18;1.75;;;1.20;;
62808;SDS011;48848;39.002;-94.584;2022-07-09T11:05:17;2.35;;;1.20;;
62808;SDS011;48848;39.002;-94.584;2022-07-09T11:07:53;2.15;;;1.25;;
62808;SDS011;48848;39.002;-94.584;2022-07-09T11:10:34;1.65;;;1.10;;
62808;SDS011;48848;39.002;-94.584;2022-07-09T11:13:02;4.88;;;1.10;;
62808;SDS011;48848;39.002;-94.584;2022-07-09T11:15:31;1.80;;;1.10;;
62808;SDS011;48848;39.002;-94.584;2022-07-09T11:17:59;7.32;;;1.40;;
62808;SDS011;48848;39.002;-94.584;2022-07-09T11:20:32;1.48;;;1.08;;
62808;SDS011;48848;39.002;-94.584;2022-07-09T11:23:14;1.85;;;1.20;;
62808;SDS011;48848;39.002;-94.584;2022-07-09T11:25:44;2.45;;;1.40;;
62808;SDS011;48848;39.002;-94.584;2022-07-09T11:28:21;2.88;;;1.40;;
62808;SDS011;48848;39.002;-94.584;2022-07-09T11:31:02;3.10;;;1.40;;
62808;SDS011;48848;39.002;-94.584;2022-07-09T11:33:29;2.60;;;1.50;;
62808;SDS011;48848;39.002;-94.584;2022-07-09T11:36:15;3.05;;;1.30;;
62808;SDS011;48848;39.002;-94.584;2022-07-09T11:39:00;3.78;;;1.20;;
62808;SDS011;48848;39.002;-94.584;2022-07-09T11:41:26;2.22;;;1.30;;
62808;SDS011;48848;39.002;-94.584;2022-07-09T11:43:52;2.22;;;1.30;;
62808;SDS011;48848;39.002;-94.584;2022-07-09T11:46:19;1.98;;;1.10;;
62808;SDS011;48848;39.002;-94.584;2022-07-09T11:48:49;6.90;;;1.20;;
62808;SDS011;48848;39.002;-94.584;2022-07-09T11:51:31;5.75;;;1.13;;
62808;SDS011;48848;39.002;-94.584;2022-07-09T11:53:59;3.78;;;0.95;;
62808;SDS011;48848;39.002;-94.584;2022-07-09T11:56:26;4.25;;;1.20;;
62808;SDS011;48848;39.002;-94.584;2022-07-09T11:58:52;2.90;;;1.05;;
62808;SDS011;48848;39.002;-94.584;2022-07-09T12:01:18;1.25;;;0.90;;
62808;SDS011;48848;39.002;-94.584;2022-07-09T12:03:48;1.15;;;1.00;;
62808;SDS011;48848;39.002;-94.584;2022-07-09T12:06:15;1.52;;;1.10;;
62808;SDS011;48848;39.002;-94.584;2022-07-09T12:08:42;1.55;;;1.10;;
62808;SDS011;48848;39.002;-94.584;2022-07-09T12:11:08;1.48;;;1.10;;
62808;SDS011;48848;39.002;-94.584;2022-07-09T12:13:35;1.70;;;1.10;;
62808;SDS011;48848;39.002;-94.584;2022-07-09T12:16:01;1.20;;;0.95;;
62808;SDS011;48848;39.002;-94.584;2022-07-09T12:18:27;1.85;;;1.13;;
62808;SDS011;48848;39.002;-94.584;2022-07-09T12:20:53;1.83;;;1.20;;
62808;SDS011;48848;39.002;-94.584;2022-07-09T12:23:20;1.73;;;1.17;;
62808;SDS011;48848;39.002;-94.584;2022-07-09T12:25:46;1.52;;;1.00;;
62808;SDS011;48848;39.002;-94.584;2022-07-09T12:28:12;1.15;;;0.95;;
62808;SDS011;48848;39.002;-94.584;2022-07-09T12:30:38;1.70;;;1.10;;
62808;SDS011;48848;39.002;-94.584;2022-07-09T12:33:04;1.55;;;1.10;;
62808;SDS011;48848;39.002;-94.584;2022-07-09T12:35:30;3.17;;;1.20;;
62808;SDS011;48848;39.002;-94.584;2022-07-09T12:37:56;1.83;;;1.02;;
62808;SDS011;48848;39.002;-94.584;2022-07-09T12:40:23;1.70;;;1.10;;
62808;SDS011;48848;39.002;-94.584;2022-07-09T12:42:50;2.97;;;1.50;;
62808;SDS011;48848;39.002;-94.584;2022-07-09T12:45:16;1.33;;;1.00;;
62808;SDS011;48848;39.002;-94.584;2022-07-09T12:47:42;1.42;;;1.10;;
62808;SDS011;48848;39.002;-94.584;2022-07-09T12:50:09;1.73;;;1.10;;
62808;SDS011;48848;39.002;-94.584;2022-07-09T12:52:36;1.67;;;1.20;;
62808;SDS011;48848;39.002;-94.584;2022-07-09T12:55:03;1.50;;;1.10;;
62808;SDS011;48848;39.002;-94.584;2022-07-09T12:57:30;2.28;;;1.40;;
62808;SDS011;48848;39.002;-94.584;2022-07-09T12:59:56;1.65;;;1.10;;
62808;SDS011;48848;39.002;-94.584;2022-07-09T13:02:23;2.78;;;1.40;;
62808;SDS011;48848;39.002;-94.584;2022-07-09T13:04:49;2.10;;;1.20;;
62808;SDS011;48848;39.002;-94.584;2022-07-09T13:07:15;1.42;;;1.10;;
62808;SDS011;48848;39.002;-94.584;2022-07-09T13:09:41;1.90;;;1.20;;
62808;SDS011;48848;39.002;-94.584;2022-07-09T13:12:07;1.80;;;1.20;;
62808;SDS011;48848;39.002;-94.584;2022-07-09T13:14:34;1.60;;;1.17;;
62808;SDS011;48848;39.002;-94.584;2022-07-09T13:17:00;3.35;;;1.30;;
62808;SDS011;48848;39.002;-94.584;2022-07-09T13:19:26;2.83;;;1.10;;
62808;SDS011;48848;39.002;-94.584;2022-07-09T13:21:52;1.60;;;1.00;;
62808;SDS011;48848;39.002;-94.584;2022-07-09T13:24:18;2.75;;;1.20;;
62808;SDS011;48848;39.002;-94.584;2022-07-09T13:26:44;2.13;;;1.30;;
62808;SDS011;48848;39.002;-94.584;2022-07-09T13:29:11;3.67;;;1.40;;
62808;SDS011;48848;39.002;-94.584;2022-07-09T13:31:37;2.95;;;1.25;;
62808;SDS011;48848;39.002;-94.584;2022-07-09T13:34:03;2.90;;;1.50;;
62808;SDS011;48848;39.002;-94.584;2022-07-09T13:36:29;2.25;;;1.30;;
62808;SDS011;48848;39.002;-94.584;2022-07-09T13:38:56;3.80;;;1.40;;
62808;SDS011;48848;39.002;-94.584;2022-07-09T13:41:22;2.22;;;1.40;;
62808;SDS011;48848;39.002;-94.584;2022-07-09T13:43:48;2.22;;;1.30;;
62808;SDS011;48848;39.002;-94.584;2022-07-09T13:46:14;2.92;;;1.40;;
62808;SDS011;48848;39.002;-94.584;2022-07-09T13:48:40;1.52;;;1.10;;
62808;SDS011;48848;39.002;-94.584;2022-07-09T13:51:06;2.45;;;1.60;;
62808;SDS011;48848;39.002;-94.584;2022-07-09T13:53:33;4.18;;;1.40;;
62808;SDS011;48848;39.002;-94.584;2022-07-09T13:55:59;3.47;;;1.30;;
62808;SDS011;48848;39.002;-94.584;2022-07-09T13:58:25;2.47;;;1.27;;
62808;SDS011;48848;39.002;-94.584;2022-07-09T14:00:52;1.92;;;1.27;;
62808;SDS011;48848;39.002;-94.584;2022-07-09T14:03:18;4.55;;;1.38;;
62808;SDS011;48848;39.002;-94.584;2022-07-09T14:05:44;2.35;;;1.40;;
62808;SDS011;48848;39.002;-94.584;2022-07-09T14:08:10;2.75;;;1.48;;
62808;SDS011;48848;39.002;-94.584;2022-07-09T14:10:37;6.28;;;1.50;;
62808;SDS011;48848;39.002;-94.584;2022-07-09T14:13:03;2.05;;;1.27;;
62808;SDS011;48848;39.002;-94.584;2022-07-09T14:15:29;2.45;;;1.40;;
62808;SDS011;48848;39.002;-94.584;2022-07-09T14:17:57;2.05;;;1.20;;
62808;SDS011;48848;39.002;-94.584;2022-07-09T14:20:23;15.45;;;1.48;;
62808;SDS011;48848;39.002;-94.584;2022-07-09T14:22:50;14.60;;;1.50;;
62808;SDS011;48848;39.002;-94.584;2022-07-09T14:25:16;8.80;;;1.63;;
62808;SDS011;48848;39.002;-94.584;2022-07-09T14:27:42;5.75;;;1.60;;
62808;SDS011;48848;39.002;-94.584;2022-07-09T14:30:09;4.32;;;1.45;;
62808;SDS011;48848;39.002;-94.584;2022-07-09T14:32:35;7.25;;;1.60;;
62808;SDS011;48848;39.002;-94.584;2022-07-09T14:35:02;7.32;;;1.55;;
62808;SDS011;48848;39.002;-94.584;2022-07-09T14:37:28;7.25;;;1.60;;
62808;SDS011;48848;39.002;-94.584;2022-07-09T14:39:55;8.23;;;1.50;;